^^
Station Historical Data
Daily Summary for February 4, 2018 Units:  Metric    English   Both
« Previous Day
Next Day »
Daily Weekly Monthly Yearly Custom
  High: Low: Average:
Temperature: -17.8 °C 19.8 °C 25.2 °C
Dew Point: -17.8 °C 8.3 °C 11.8 °C
Humidity: Humidity% 24% 45%
Wind Speed: 0km/h 0km/h 3.5km/h
Wind Gust: 0km/h - -
Wind- - ESE
Pressure: 0 hPa 1000.2 hPa -
Precipitation: 0 mm    
Historical Graphs
 
 
Tabular Data for February 4, 2018
Time Temperature Dew Point Pressure Wind Wind Speed Wind Gust Humidity Rainfall Rate (Hourly) solar Conditions
-17.8 °C -17.8 °C 0 hPa Calm     Humidity% 0 mm SolarRadiationWatts/m^2 W/m2 Conditions
00:01 21.8 °C 14.4 °C 1006.7 hPa Calm   1.6 km/h 63% 0 mm 0.0 W/m2
00:06 21.8 °C 14.4 °C 1006.3 hPa Calm   1.6 km/h 63% 0 mm 0.0 W/m2
00:11 21.8 °C 14.4 °C 1006.7 hPa SE 3.2 km/h 3.2 km/h 63% 0 mm 0.0 W/m2
00:16 21.8 °C 14.4 °C 1006.7 hPa Calm   3.2 km/h 63% 0 mm 0.0 W/m2
00:21 21.8 °C 14.4 °C 1006.3 hPa Calm   3.2 km/h 63% 0 mm 0.0 W/m2
00:26 21.8 °C 14.4 °C 1006.3 hPa ENE 1.4 km/h 3.2 km/h 63% 0 mm 0.0 W/m2
00:31 21.8 °C 14.4 °C 1006.3 hPa Calm   3.2 km/h 63% 0 mm 0.0 W/m2
00:37 21.7 °C 14.3 °C 1006.3 hPa Calm   3.2 km/h 63% 0 mm 0.0 W/m2
00:42 21.7 °C 14.3 °C 1006.7 hPa SE 1.4 km/h 6.4 km/h 63% 0 mm 0.0 W/m2
00:47 21.7 °C 14.3 °C 1006.7 hPa East 1.4 km/h 4.8 km/h 63% 0 mm 0.0 W/m2
00:52 21.7 °C 14.8 °C 1006.7 hPa ENE 6.4 km/h 14.5 km/h 65% 0 mm 0.0 W/m2
00:57 21.6 °C 14.7 °C 1006.7 hPa NE 4.7 km/h 12.9 km/h 65% 0 mm 0.0 W/m2
01:02 21.4 °C 14.5 °C 1006.7 hPa Calm   11.3 km/h 65% 0 mm 0.0 W/m2
01:07 21.2 °C 14.4 °C 1006.7 hPa ESE 3.2 km/h 8 km/h 65% 0 mm 0.0 W/m2
01:12 21.1 °C 14 °C 1006.7 hPa East 11.1 km/h 14.5 km/h 64% 0 mm 0.0 W/m2
01:18 20.9 °C 13.6 °C 1006.7 hPa ESE 9.7 km/h 9.7 km/h 63% 0 mm 0.0 W/m2
01:23 20.7 °C 13.2 °C 1006.7 hPa NNE 7.9 km/h 11.3 km/h 62% 0 mm 0.0 W/m2
01:29 20.4 °C 12.9 °C 1006.7 hPa Calm   6.4 km/h 62% 0 mm 0.0 W/m2
01:34 20.4 °C 12.9 °C 1006.7 hPa NE 4.7 km/h 12.9 km/h 62% 0 mm 0.0 W/m2
01:39 20.3 °C 12.8 °C 1006.7 hPa NNE 3.2 km/h 8 km/h 62% 0 mm 0.0 W/m2
01:44 20.3 °C 12.5 °C 1006.7 hPa NE 3.2 km/h 6.4 km/h 61% 0 mm 0.0 W/m2
01:49 20.2 °C 12.4 °C 1006.3 hPa ENE 6.4 km/h 9.7 km/h 61% 0 mm 0.0 W/m2
01:54 20.2 °C 12.4 °C 1006.3 hPa ESE 6.4 km/h 12.9 km/h 61% 0 mm 0.0 W/m2
01:59 20.2 °C 12.7 °C 1006.3 hPa East 7.9 km/h 9.7 km/h 62% 0 mm 0.0 W/m2
02:04 20.1 °C 12.6 °C 1006 hPa East 3.2 km/h 3.2 km/h 62% 0 mm 0.0 W/m2
02:10 20.1 °C 12.8 °C 1006 hPa NNW 1.4 km/h 3.2 km/h 63% 0 mm 0.0 W/m2
02:15 20.1 °C 12.6 °C 1005.6 hPa NNW 1.4 km/h 6.4 km/h 62% 0 mm 0.0 W/m2
02:20 20.1 °C 12.6 °C 1005.6 hPa Calm   1.6 km/h 62% 0 mm 0.0 W/m2
02:25 20 °C 12.5 °C 1005.6 hPa Calm   1.6 km/h 62% 0 mm 0.0 W/m2
02:30 20 °C 12.5 °C 1005.6 hPa Calm     62% 0 mm 0.0 W/m2
02:35 20.1 °C 12.3 °C 1005.3 hPa Calm   1.6 km/h 61% 0 mm 0.0 W/m2
02:40 20.1 °C 12.1 °C 1005.3 hPa East 3.2 km/h 3.2 km/h 60% 0 mm 0.0 W/m2
02:45 20.2 °C 11.7 °C 1005.3 hPa Calm   4.8 km/h 58% 0 mm 0.0 W/m2
02:50 20.4 °C 10.5 °C 1005 hPa Calm   12.9 km/h 53% 0 mm 0.0 W/m2
02:56 20.7 °C 9.9 °C 1005 hPa NNW 4.7 km/h 9.7 km/h 50% 0 mm 0.0 W/m2
03:01 21.1 °C 10.3 °C 1004.6 hPa SE 1.4 km/h 4.8 km/h 50% 0 mm 0.0 W/m2
03:06 21.3 °C 10.5 °C 1004.6 hPa West 4.7 km/h 8 km/h 50% 0 mm 0.0 W/m2
03:11 21.4 °C 10.8 °C 1004.6 hPa Calm   1.6 km/h 51% 0 mm 0.0 W/m2
03:16 21.4 °C 10.8 °C 1004.6 hPa Calm   3.2 km/h 51% 0 mm 0.0 W/m2
03:21 21.4 °C 11.1 °C 1004.6 hPa Calm   1.6 km/h 52% 0 mm 0.0 W/m2
03:26 21.4 °C 10.8 °C 1004.6 hPa Calm     51% 0 mm 0.0 W/m2
03:31 21.3 °C 10.8 °C 1004.3 hPa Calm   4.8 km/h 51% 0 mm 0.0 W/m2
03:37 21.3 °C 11 °C 1004.3 hPa Calm     52% 0 mm 0.0 W/m2
03:42 21.3 °C 11 °C 1004.3 hPa Calm     52% 0 mm 0.0 W/m2
03:47 21.2 °C 11 °C 1003.9 hPa Calm   1.6 km/h 52% 0 mm 0.0 W/m2
03:52 21.2 °C 11 °C 1003.9 hPa Calm   3.2 km/h 52% 0 mm 0.0 W/m2
03:57 21.3 °C 11 °C 1003.9 hPa Calm   4.8 km/h 52% 0 mm 0.0 W/m2
04:02 21.3 °C 11 °C 1003.9 hPa Calm     52% 0 mm 0.0 W/m2
04:07 21.3 °C 11 °C 1003.9 hPa Calm     52% 0 mm 0.0 W/m2
04:12 21.3 °C 10.5 °C 1004.3 hPa Calm   3.2 km/h 50% 0 mm 0.0 W/m2
04:18 21.6 °C 9.2 °C 1004.3 hPa SE 13 km/h 17.7 km/h 45% 0 mm 0.0 W/m2
04:23 22.2 °C 9.4 °C 1004.3 hPa SSE 3.2 km/h 14.5 km/h 44% 0 mm 0.0 W/m2
04:28 22.6 °C 9 °C 1004.3 hPa SE 6.4 km/h 8 km/h 42% 0 mm 0.0 W/m2
04:33 22.9 °C 9.3 °C 1004.3 hPa SE 6.4 km/h 16.1 km/h 42% 0 mm 0.0 W/m2
04:38 23.1 °C 9.5 °C 1004.3 hPa NE 4.7 km/h 9.7 km/h 42% 0 mm 0.0 W/m2
04:43 23.2 °C 9.6 °C 1004.3 hPa ESE 6.4 km/h 14.5 km/h 42% 0 mm 0.0 W/m2
04:48 23.2 °C 9.6 °C 1004.3 hPa ENE 11.1 km/h 11.3 km/h 42% 0 mm 0.0 W/m2
04:53 22.9 °C 11 °C 1004.6 hPa NE 9.7 km/h 19.3 km/h 47% 0 mm 0.0 W/m2
04:58 22.5 °C 11.3 °C 1004.3 hPa NE 3.2 km/h 9.7 km/h 49% 0 mm 0.0 W/m2
05:03 22.2 °C 11.3 °C 1004.6 hPa SE 1.4 km/h 4.8 km/h 50% 0 mm 0.0 W/m2
05:08 21.9 °C 11.6 °C 1004.6 hPa ESE 1.4 km/h 9.7 km/h 52% 0 mm 0.0 W/m2
05:13 21.7 °C 11.7 °C 1004.6 hPa ENE 7.9 km/h 9.7 km/h 53% 0 mm 0.0 W/m2
05:18 21.5 °C 11.8 °C 1004.6 hPa East 6.4 km/h 8 km/h 54% 0 mm 0.0 W/m2
05:24 21.3 °C 11.6 °C 1004.6 hPa NNE 3.2 km/h 9.7 km/h 54% 0 mm 0.0 W/m2
05:29 21.1 °C 11.7 °C 1004.6 hPa NE 3.2 km/h 11.3 km/h 55% 0 mm 0.0 W/m2
05:35 20.9 °C 11.8 °C 1004.6 hPa South 1.4 km/h 4.8 km/h 56% 0 mm 0.0 W/m2
05:40 20.8 °C 11.7 °C 1004.6 hPa Calm   11.3 km/h 56% 0 mm 0.0 W/m2
05:45 20.7 °C 11.6 °C 1004.6 hPa ENE 7.9 km/h 8 km/h 56% 0 mm 0.0 W/m2
05:50 20.7 °C 11.6 °C 1005 hPa NE 9.7 km/h 11.3 km/h 56% 0 mm 0.0 W/m2
05:55 20.7 °C 11.6 °C 1005 hPa North 7.9 km/h 12.9 km/h 56% 0 mm 0.0 W/m2
06:00 20.6 °C 11.5 °C 1005 hPa NE 1.4 km/h 14.5 km/h 56% 0 mm 0.0 W/m2
06:06 20.6 °C 11.8 °C 1005 hPa NE 7.9 km/h 16.1 km/h 57% 0 mm 0.0 W/m2
06:11 20.4 °C 11.6 °C 1005 hPa East 9.7 km/h 14.5 km/h 57% 0 mm 0.0 W/m2
06:16 20.4 °C 11.9 °C 1005 hPa Calm   9.7 km/h 58% 0 mm 0.0 W/m2
06:22 20.3 °C 12 °C 1005 hPa ESE 1.4 km/h 8 km/h 59% 0 mm 0.0 W/m2
06:27 20.2 °C 11.9 °C 1005 hPa NE 1.4 km/h 8 km/h 59% 0 mm 0.0 W/m2
06:32 20.2 °C 11.9 °C 1005 hPa NE 1.4 km/h 11.3 km/h 59% 0 mm 0.0 W/m2
06:38 20.1 °C 12.1 °C 1005 hPa NE 9.7 km/h 12.9 km/h 60% 0 mm 0.0 W/m2
06:43 20 °C 12 °C 1005 hPa ESE 3.2 km/h 9.7 km/h 60% 0 mm 7.0 W/m2
06:48 19.9 °C 11.9 °C 1005 hPa ENE 4.7 km/h 8 km/h 60% 0 mm 11.0 W/m2
06:54 19.9 °C 11.9 °C 1004.6 hPa ENE 3.2 km/h 4.8 km/h 60% 0 mm 18.0 W/m2
06:59 19.8 °C 12.1 °C 1005 hPa ENE 1.4 km/h 9.7 km/h 61% 0 mm 23.0 W/m2
07:04 19.8 °C 12.1 °C 1005 hPa Calm     61% 0 mm 30.0 W/m2
07:10 19.8 °C 12.1 °C 1005 hPa Calm   4.8 km/h 61% 0 mm 39.0 W/m2
07:15 19.8 °C 12.3 °C 1005 hPa Calm   1.6 km/h 62% 0 mm 46.0 W/m2
07:20 19.8 °C 12.3 °C 1005 hPa Calm   3.2 km/h 62% 0 mm 54.0 W/m2
07:26 19.8 °C 12.1 °C 1005 hPa Calm   1.6 km/h 61% 0 mm 63.0 W/m2
07:31 19.9 °C 12.2 °C 1005 hPa Calm     61% 0 mm 70.0 W/m2
07:36 19.9 °C 12.4 °C 1005 hPa Calm     62% 0 mm 81.0 W/m2
07:42 20 °C 12.5 °C 1005 hPa Calm     62% 0 mm 93.0 W/m2
07:47 20.1 °C 12.6 °C 1005 hPa Calm     62% 0 mm 111.0 W/m2
07:52 20.2 °C 12.7 °C 1005 hPa Calm   1.6 km/h 62% 0 mm 125.0 W/m2
07:58 20.3 °C 12.3 °C 1004.6 hPa Calm   3.2 km/h 60% 0 mm 142.0 W/m2
08:04 20.5 °C 12.2 °C 1005 hPa Calm     59% 0 mm 153.0 W/m2
08:09 20.7 °C 12.4 °C 1005 hPa SW 1.4 km/h 3.2 km/h 59% 0 mm 156.0 W/m2
08:14 20.9 °C 12.6 °C 1005 hPa WSW 3.2 km/h 4.8 km/h 59% 0 mm 162.0 W/m2
08:19 21.1 °C 13 °C 1005 hPa Calm   4.8 km/h 60% 0 mm 151.0 W/m2
08:24 21.2 °C 12.6 °C 1005 hPa Calm     58% 0 mm 163.0 W/m2
08:30 21.4 °C 12.8 °C 1005 hPa Calm   1.6 km/h 58% 0 mm 172.0 W/m2
08:35 21.7 °C 12.3 °C 1005 hPa SW 4.8 km/h 4.8 km/h 55% 0 mm 202.0 W/m2
08:40 21.8 °C 12.1 °C 1005 hPa Calm     54% 0 mm 176.0 W/m2
08:46 22.1 °C 12.4 °C 1005 hPa Calm     54% 0 mm 185.0 W/m2
08:51 22.3 °C 12.5 °C 1005 hPa WNW 1.4 km/h 1.6 km/h 54% 0 mm 195.0 W/m2
08:56 22.4 °C 12.3 °C 1005 hPa West 1.4 km/h 3.2 km/h 53% 0 mm 207.0 W/m2
09:02 22.7 °C 12.3 °C 1005 hPa Calm     52% 0 mm 237.0 W/m2
09:07 22.9 °C 12.5 °C 1005 hPa South 1.4 km/h 1.6 km/h 52% 0 mm 274.0 W/m2
09:12 23.3 °C 12 °C 1005 hPa Calm     49% 0 mm 378.0 W/m2
09:18 23.7 °C 11.4 °C 1005 hPa Calm   3.2 km/h 46% 0 mm 316.0 W/m2
09:24 24.2 °C 11.8 °C 1005.3 hPa Calm     46% 0 mm 536.0 W/m2
09:29 24.7 °C 12 °C 1005 hPa Calm   1.6 km/h 45% 0 mm 591.0 W/m2
09:34 25.2 °C 12.1 °C 1005 hPa Calm   3.2 km/h 44% 0 mm 362.0 W/m2
09:39 25.6 °C 11.7 °C 1005.3 hPa Calm   1.6 km/h 42% 0 mm 246.0 W/m2
09:44 25.8 °C 11.5 °C 1005 hPa East 1.4 km/h 3.2 km/h 41% 0 mm 234.0 W/m2
09:50 26.1 °C 9 °C 1005 hPa East 6.4 km/h 9.7 km/h 34% 0 mm 294.0 W/m2
09:55 26.5 °C 8.9 °C 1005 hPa SE 4.7 km/h 14.5 km/h 33% 0 mm 357.0 W/m2
10:00 26.9 °C 8.3 °C 1005.3 hPa ESE 13 km/h 17.7 km/h 31% 0 mm 844.0 W/m2
10:06 27.4 °C 8.8 °C 1005.3 hPa SE 1.4 km/h 17.7 km/h 31% 0 mm 387.0 W/m2
10:11 27.6 °C 8.9 °C 1005 hPa ENE 6.4 km/h 14.5 km/h 31% 0 mm 722.0 W/m2
10:16 27.8 °C 8.6 °C 1005.3 hPa ESE 4.7 km/h 17.7 km/h 30% 0 mm 587.0 W/m2
10:22 28.2 °C 9.5 °C 1005.3 hPa ENE 1.4 km/h 12.9 km/h 31% 0 mm 645.0 W/m2
10:28 28.4 °C 9.6 °C 1005.3 hPa NE 1.4 km/h 17.7 km/h 31% 0 mm 519.0 W/m2
10:33 28.4 °C 10.1 °C 1005.3 hPa SE 7.9 km/h 20.9 km/h 32% 0 mm 661.0 W/m2
10:39 28.6 °C 11.2 °C 1005.3 hPa East 1.4 km/h 12.9 km/h 34% 0 mm 424.0 W/m2
10:44 28.6 °C 10.8 °C 1005 hPa East 4.7 km/h 17.7 km/h 33% 0 mm 506.0 W/m2
10:49 28.7 °C 11.3 °C 1005.3 hPa NE 1.4 km/h 14.5 km/h 34% 0 mm 540.0 W/m2
10:54 28.9 °C 11.5 °C 1005 hPa ESE 4.7 km/h 14.5 km/h 34% 0 mm 642.0 W/m2
11:00 29.2 °C 11.7 °C 1005.3 hPa NNE 3.2 km/h 8 km/h 34% 0 mm 854.0 W/m2
11:05 29.6 °C 11.6 °C 1005 hPa NE 7.9 km/h 14.5 km/h 33% 0 mm 666.0 W/m2
11:10 29.8 °C 11.8 °C 1005.3 hPa NNE 9.7 km/h 17.7 km/h 33% 0 mm 656.0 W/m2
11:16 30.1 °C 11.6 °C 1005 hPa ENE 11.1 km/h 22.5 km/h 32% 0 mm 745.0 W/m2
11:21 30.2 °C 11.7 °C 1005 hPa East 13 km/h 16.1 km/h 32% 0 mm 756.0 W/m2
11:26 30.3 °C 11.8 °C 1005 hPa ESE 11.1 km/h 17.7 km/h 32% 0 mm 689.0 W/m2
11:32 30.3 °C 12.2 °C 1005 hPa SSE 3.2 km/h 16.1 km/h 33% 0 mm 722.0 W/m2
11:37 30.3 °C 11.8 °C 1005 hPa Calm   14.5 km/h 32% 0 mm 661.0 W/m2
11:42 30.3 °C 11.8 °C 1004.6 hPa NNE 6.4 km/h 16.1 km/h 32% 0 mm 742.0 W/m2
11:47 30.4 °C 11.4 °C 1004.6 hPa NE 9.7 km/h 17.7 km/h 31% 0 mm 877.0 W/m2
11:53 30.6 °C 11.5 °C 1004.6 hPa North 7.9 km/h 14.5 km/h 31% 0 mm 963.0 W/m2
11:58 30.8 °C 11.7 °C 1004.6 hPa North 1.4 km/h 12.9 km/h 31% 0 mm 1252.0 W/m2
12:03 31.2 °C 11.6 °C 1004.6 hPa ENE 9.7 km/h 16.1 km/h 30% 0 mm 1134.0 W/m2
12:08 31.3 °C 11.7 °C 1004.6 hPa ENE 9.7 km/h 9.7 km/h 30% 0 mm 654.0 W/m2
12:14 31.7 °C 11.5 °C 1004.3 hPa NNE 4.7 km/h 11.3 km/h 29% 0 mm 582.0 W/m2
12:19 31.7 °C 11.5 °C 1004.3 hPa NNE 7.9 km/h 16.1 km/h 29% 0 mm 635.0 W/m2
12:24 31.7 °C 11.5 °C 1004.3 hPa NE 9.7 km/h 14.5 km/h 29% 0 mm 737.0 W/m2
12:29 31.7 °C 12 °C 1004.3 hPa North 9.7 km/h 16.1 km/h 30% 0 mm 703.0 W/m2
12:34 31.6 °C 11.4 °C 1004.3 hPa Calm   4.8 km/h 29% 0 mm 640.0 W/m2
12:39 31.6 °C 11.9 °C 1004.3 hPa NNE 11.1 km/h 14.5 km/h 30% 0 mm 547.0 W/m2
12:45 31.4 °C 11.2 °C 1004.3 hPa NNW 11.1 km/h 24.1 km/h 29% 0 mm 679.0 W/m2
12:50 31.6 °C 11.9 °C 1003.9 hPa NE 9.7 km/h 17.7 km/h 30% 0 mm 1051.0 W/m2
12:55 31.8 °C 11.6 °C 1003.9 hPa NNW 3.2 km/h 14.5 km/h 29% 0 mm 737.0 W/m2
13:00 31.9 °C 12.2 °C 1003.9 hPa SE 1.4 km/h 12.9 km/h 30% 0 mm 707.0 W/m2
13:06 31.8 °C 11.6 °C 1003.9 hPa NNE 9.7 km/h 11.3 km/h 29% 0 mm 415.0 W/m2
13:11 32.1 °C 11.8 °C 1003.9 hPa NNW 6.4 km/h 16.1 km/h 29% 0 mm 1452.0 W/m2
13:16 32.3 °C 12 °C 1003.9 hPa NNW 4.7 km/h 20.9 km/h 29% 0 mm 809.0 W/m2
13:21 32.3 °C 11.5 °C 1003.9 hPa SSE 3.2 km/h 11.3 km/h 28% 0 mm 547.0 W/m2
13:26 32.1 °C 11.8 °C 1003.6 hPa NE 9.7 km/h 14.5 km/h 29% 0 mm 610.0 W/m2
13:31 31.9 °C 11.7 °C 1003.9 hPa ENE 6.4 km/h 14.5 km/h 29% 0 mm 661.0 W/m2
13:37 32.3 °C 11.5 °C 1003.6 hPa NE 4.7 km/h 9.7 km/h 28% 0 mm 691.0 W/m2
13:42 32.5 °C 11.6 °C 1003.6 hPa East 4.7 km/h 20.9 km/h 28% 0 mm 1232.0 W/m2
13:47 32.7 °C 11.8 °C 1003.6 hPa NE 9.7 km/h 17.7 km/h 28% 0 mm 780.0 W/m2
13:53 32.7 °C 11.8 °C 1003.6 hPa North 17.7 km/h 19.3 km/h 28% 0 mm 884.0 W/m2
13:59 32.7 °C 11.3 °C 1003.3 hPa NE 6.4 km/h 19.3 km/h 27% 0 mm 942.0 W/m2
14:04 32.9 °C 11.4 °C 1003.3 hPa NNE 11.1 km/h 11.3 km/h 27% 0 mm 1025.0 W/m2
14:09 32.8 °C 11.9 °C 1003.6 hPa ENE 13 km/h 20.9 km/h 28% 0 mm 329.0 W/m2
14:14 32.2 °C 11.4 °C 1003.3 hPa NE 1.4 km/h 14.5 km/h 28% 0 mm 357.0 W/m2
14:19 31.9 °C 11.7 °C 1003.3 hPa SE 4.7 km/h 11.3 km/h 29% 0 mm 364.0 W/m2
14:24 32 °C 11.7 °C 1003.3 hPa NNE 7.9 km/h 11.3 km/h 29% 0 mm 896.0 W/m2
14:29 32.2 °C 11.4 °C 1002.9 hPa SE 4.7 km/h 12.9 km/h 28% 0 mm 983.0 W/m2
14:34 32.3 °C 11.5 °C 1002.9 hPa East 4.7 km/h 19.3 km/h 28% 0 mm 1028.0 W/m2
14:39 32.4 °C 11.6 °C 1002.9 hPa NE 7.9 km/h 16.1 km/h 28% 0 mm 1030.0 W/m2
14:45 32.9 °C 11.4 °C 1002.9 hPa ESE 9.7 km/h 17.7 km/h 27% 0 mm 657.0 W/m2
14:50 32.9 °C 11.4 °C 1002.9 hPa East 9.7 km/h 16.1 km/h 27% 0 mm 589.0 W/m2
14:55 32.8 °C 11.3 °C 1002.6 hPa NE 6.4 km/h 14.5 km/h 27% 0 mm 503.0 W/m2
15:00 32.7 °C 11.3 °C 1002.9 hPa ENE 9.7 km/h 17.7 km/h 27% 0 mm 413.0 W/m2
15:05 32.7 °C 11.8 °C 1002.6 hPa SSE 4.7 km/h 14.5 km/h 28% 0 mm 360.0 W/m2
15:10 32.6 °C 11.7 °C 1002.6 hPa NNW 1.4 km/h 8 km/h 28% 0 mm 582.0 W/m2
15:15 32.7 °C 11.8 °C 1002.3 hPa North 6.4 km/h 9.7 km/h 28% 0 mm 962.0 W/m2
15:20 33.2 °C 11.1 °C 1002.3 hPa SSE 11.1 km/h 14.5 km/h 26% 0 mm 954.0 W/m2
15:25 33.6 °C 11.4 °C 1002.3 hPa ESE 1.4 km/h 9.7 km/h 26% 0 mm 988.0 W/m2
15:30 33.7 °C 11.5 °C 1001.9 hPa NNE 7.9 km/h 16.1 km/h 26% 0 mm 933.0 W/m2
15:35 33.7 °C 11.5 °C 1001.9 hPa NE 7.9 km/h 12.9 km/h 26% 0 mm 772.0 W/m2
15:40 33.6 °C 11.4 °C 1001.9 hPa ESE 6.4 km/h 12.9 km/h 26% 0 mm 626.0 W/m2
15:46 33.5 °C 11.4 °C 1001.6 hPa NE 1.4 km/h 16.1 km/h 26% 0 mm 756.0 W/m2
15:51 33.4 °C 10.7 °C 1001.6 hPa SSE 4.7 km/h 11.3 km/h 25% 0 mm 369.0 W/m2
15:56 33.3 °C 10.6 °C 1001.2 hPa NE 6.4 km/h 8 km/h 25% 0 mm 285.0 W/m2
16:01 33.3 °C 11.2 °C 1001.2 hPa NE 3.2 km/h 6.4 km/h 26% 0 mm 364.0 W/m2
16:06 33.3 °C 10.6 °C 1001.2 hPa SE 4.7 km/h 11.3 km/h 25% 0 mm 338.0 W/m2
16:11 33.1 °C 9.8 °C 1001.2 hPa ESE 4.7 km/h 12.9 km/h 24% 0 mm 301.0 W/m2
16:16 32.9 °C 10.3 °C 1001.2 hPa East 11.1 km/h 14.5 km/h 25% 0 mm 295.0 W/m2
16:21 32.6 °C 11.2 °C 1001.2 hPa ENE 4.7 km/h 12.9 km/h 27% 0 mm 265.0 W/m2
16:26 32.4 °C 10.4 °C 1000.9 hPa ENE 4.7 km/h 6.4 km/h 26% 0 mm 294.0 W/m2
16:31 32.4 °C 11 °C 1000.9 hPa Calm   11.3 km/h 27% 0 mm 728.0 W/m2
16:37 32.6 °C 11.2 °C 1000.9 hPa East 9.7 km/h 17.7 km/h 27% 0 mm 538.0 W/m2
16:42 32.7 °C 10.7 °C 1000.6 hPa SW 4.7 km/h 14.5 km/h 26% 0 mm 353.0 W/m2
16:47 32.8 °C 10.2 °C 1000.6 hPa ENE 1.4 km/h 8 km/h 25% 0 mm 257.0 W/m2
16:52 32.8 °C 10.2 °C 1000.6 hPa NE 7.9 km/h 8 km/h 25% 0 mm 246.0 W/m2
16:57 32.8 °C 10.2 °C 1000.2 hPa ESE 4.7 km/h 11.3 km/h 25% 0 mm 255.0 W/m2
17:02 32.6 °C 10.6 °C 1000.2 hPa SSE 1.4 km/h 12.9 km/h 26% 0 mm 232.0 W/m2
17:07 32.3 °C 10.9 °C 1000.2 hPa Calm   17.7 km/h 27% 0 mm 188.0 W/m2
17:12 32.2 °C 11.4 °C 1000.2 hPa NE 3.2 km/h 12.9 km/h 28% 0 mm 167.0 W/m2
17:18 32.1 °C 11.3 °C 1000.2 hPa Calm   9.7 km/h 28% 0 mm 156.0 W/m2
17:23 32.1 °C 10.7 °C 1000.2 hPa SSE 6.4 km/h 14.5 km/h 27% 0 mm 107.0 W/m2
17:28 31.9 °C 10.6 °C 1000.2 hPa East 6.4 km/h 12.9 km/h 27% 0 mm 120.0 W/m2
17:33 31.8 °C 10.5 °C 1000.2 hPa East 1.4 km/h 4.8 km/h 27% 0 mm 144.0 W/m2
17:38 31.7 °C 10.4 °C 1000.2 hPa ENE 1.4 km/h 20.9 km/h 27% 0 mm 149.0 W/m2
17:43 31.6 °C 10.3 °C 1000.2 hPa NNE 4.7 km/h 14.5 km/h 27% 0 mm 137.0 W/m2
17:48 31.4 °C 11.7 °C 1000.2 hPa East 19.5 km/h 27.4 km/h 30% 0 mm 97.0 W/m2
17:53 30.9 °C 11.3 °C 1000.6 hPa SSE 14.3 km/h 24.1 km/h 30% 0 mm 81.0 W/m2
17:58 30.6 °C 12 °C 1000.6 hPa East 11.1 km/h 16.1 km/h 32% 0 mm 83.0 W/m2
18:03 30.3 °C 11.8 °C 1000.6 hPa ENE 3.2 km/h 19.3 km/h 32% 0 mm 74.0 W/m2
18:09 30.1 °C 11.6 °C 1000.6 hPa East 6.4 km/h 12.9 km/h 32% 0 mm 65.0 W/m2
18:14 29.9 °C 11.4 °C 1000.6 hPa ESE 1.4 km/h 17.7 km/h 32% 0 mm 62.0 W/m2
18:19 29.8 °C 11.3 °C 1000.6 hPa Calm   12.9 km/h 32% 0 mm 54.0 W/m2
18:24 29.7 °C 11.2 °C 1000.9 hPa NE 4.7 km/h 12.9 km/h 32% 0 mm 25.0 W/m2
18:29 29.6 °C 11.2 °C 1001.2 hPa NE 4.7 km/h 17.7 km/h 32% 0 mm 14.0 W/m2
18:34 29.6 °C 11.2 °C 1001.2 hPa SE 1.4 km/h 6.4 km/h 32% 0 mm 7.0 W/m2
18:39 29 °C 13.2 °C 1001.6 hPa West 7.9 km/h 12.9 km/h 38% 0 mm 5.0 W/m2
18:44 27.9 °C 13.4 °C 1001.9 hPa West 7.9 km/h 12.9 km/h 41% 0 mm 5.0 W/m2
18:50 26.9 °C 14 °C 1001.9 hPa WSW 11.1 km/h 12.9 km/h 45% 0 mm 0.0 W/m2
18:55 25.9 °C 13.4 °C 1002.3 hPa West 3.2 km/h 20.9 km/h 46% 0 mm 0.0 W/m2
19:01 24.9 °C 14.1 °C 1002.6 hPa SW 11.1 km/h 19.3 km/h 51% 0 mm 0.0 W/m2
19:06 23.5 °C 13.7 °C 1002.6 hPa WSW 13 km/h 22.5 km/h 54% 0 mm 0.0 W/m2
19:12 22.4 °C 13.7 °C 1002.9 hPa Calm   9.7 km/h 58% 0 mm 0.0 W/m2
19:17 22.1 °C 13.7 °C 1002.9 hPa Calm   8 km/h 59% 0 mm 0.0 W/m2
19:22 21.9 °C 13.5 °C 1002.9 hPa Calm   9.7 km/h 59% 0 mm 0.0 W/m2
19:27 21.8 °C 13.2 °C 1002.9 hPa SW 1.4 km/h 3.2 km/h 58% 0 mm 0.0 W/m2
19:32 21.7 °C 13.1 °C 1002.9 hPa West 1.4 km/h 1.6 km/h 58% 0 mm 0.0 W/m2
19:37 21.7 °C 13.1 °C 1002.9 hPa Calm   4.8 km/h 58% 0 mm 0.0 W/m2
19:42 21.7 °C 12.8 °C 1003.3 hPa ESE 1.4 km/h 6.4 km/h 57% 0 mm 0.0 W/m2
19:47 21.9 °C 12.5 °C 1002.9 hPa SE 3.2 km/h 4.8 km/h 55% 0 mm 0.0 W/m2
19:52 22.2 °C 12.2 °C 1003.3 hPa SE 3.2 km/h 8 km/h 53% 0 mm 0.0 W/m2
19:58 22.3 °C 12 °C 1003.3 hPa South 1.4 km/h 9.7 km/h 52% 0 mm 0.0 W/m2
20:03 22.6 °C 11.6 °C 1003.6 hPa Calm   3.2 km/h 50% 0 mm 0.0 W/m2
20:08 22.8 °C 11.2 °C 1003.9 hPa Calm   8 km/h 48% 0 mm 0.0 W/m2
20:13 23.1 °C 11.2 °C 1003.9 hPa Calm   1.6 km/h 47% 0 mm 0.0 W/m2
20:18 23.2 °C 11.3 °C 1003.9 hPa Calm   1.6 km/h 47% 0 mm 0.0 W/m2
20:23 23.4 °C 11.1 °C 1003.9 hPa Calm   8 km/h 46% 0 mm 0.0 W/m2
20:28 23.6 °C 11.3 °C 1003.9 hPa WSW 1.4 km/h 14.5 km/h 46% 0 mm 0.0 W/m2
20:33 23.7 °C 11.4 °C 1003.9 hPa WSW 1.4 km/h 8 km/h 46% 0 mm 0.0 W/m2
20:39 23.7 °C 11.4 °C 1003.9 hPa Calm   3.2 km/h 46% 0 mm 0.0 W/m2
20:44 23.7 °C 11.7 °C 1003.6 hPa Calm     47% 0 mm 0.0 W/m2
20:49 23.7 °C 11.7 °C 1003.6 hPa Calm   1.6 km/h 47% 0 mm 0.0 W/m2
20:54 23.7 °C 12.4 °C 1003.9 hPa Calm   4.8 km/h 49% 0 mm 0.0 W/m2
20:59 23.6 °C 12.3 °C 1003.6 hPa Calm     49% 0 mm 0.0 W/m2
21:04 23.6 °C 12.6 °C 1003.9 hPa Calm     50% 0 mm 0.0 W/m2
21:09 23.6 °C 12.6 °C 1003.9 hPa Calm   1.6 km/h 50% 0 mm 0.0 W/m2
21:15 23.6 °C 12.9 °C 1003.9 hPa Calm   3.2 km/h 51% 0 mm 0.0 W/m2
21:20 23.4 °C 13.3 °C 1003.9 hPa WNW 1.4 km/h 8 km/h 53% 0 mm 0.0 W/m2
21:25 23.2 °C 13.1 °C 1004.3 hPa WSW 4.7 km/h 9.7 km/h 53% 0 mm 0.0 W/m2
21:30 23.1 °C 13 °C 1004.3 hPa Calm   4.8 km/h 53% 0 mm 0.0 W/m2
21:35 22.9 °C 13.1 °C 1004.3 hPa WSW 1.4 km/h 4.8 km/h 54% 0 mm 0.0 W/m2
21:40 22.9 °C 13.4 °C 1004.3 hPa Calm   4.8 km/h 55% 0 mm 0.0 W/m2
21:45 22.8 °C 13.3 °C 1004.3 hPa NW 3.2 km/h 4.8 km/h 55% 0 mm 0.0 W/m2
21:50 22.7 °C 13.2 °C 1004.3 hPa Calm   4.8 km/h 55% 0 mm 0.0 W/m2
21:55 22.7 °C 13.2 °C 1004.3 hPa Calm   3.2 km/h 55% 0 mm 0.0 W/m2
22:01 22.7 °C 12.9 °C 1004.3 hPa Calm   1.6 km/h 54% 0 mm 0.0 W/m2
22:06 22.7 °C 12.9 °C 1004.3 hPa Calm   4.8 km/h 54% 0 mm 0.0 W/m2
22:11 22.7 °C 12.9 °C 1004.6 hPa Calm     54% 0 mm 0.0 W/m2
22:16 22.7 °C 12.9 °C 1004.6 hPa Calm   1.6 km/h 54% 0 mm 0.0 W/m2
22:21 22.7 °C 12.9 °C 1004.6 hPa Calm     54% 0 mm 0.0 W/m2
22:27 22.7 °C 12.9 °C 1004.6 hPa Calm     54% 0 mm 0.0 W/m2
22:32 22.7 °C 13.2 °C 1004.6 hPa NW 1.4 km/h 4.8 km/h 55% 0 mm 0.0 W/m2
22:37 22.6 °C 13.1 °C 1004.6 hPa WSW 3.2 km/h 4.8 km/h 55% 0 mm 0.0 W/m2
22:42 22.6 °C 13.1 °C 1004.6 hPa Calm   3.2 km/h 55% 0 mm 0.0 W/m2
22:48 22.6 °C 13.1 °C 1004.6 hPa Calm     55% 0 mm 0.0 W/m2
22:53 22.6 °C 12.8 °C 1005 hPa Calm   3.2 km/h 54% 0 mm 0.0 W/m2
22:59 22.6 °C 12.8 °C 1005 hPa NW 4.7 km/h 4.8 km/h 54% 0 mm 0.0 W/m2
23:05 22.6 °C 12.8 °C 1005 hPa Calm   1.6 km/h 54% 0 mm 0.0 W/m2
23:10 22.6 °C 12.8 °C 1005 hPa NE 1.4 km/h 8 km/h 54% 0 mm 0.0 W/m2
23:15 22.4 °C 12.6 °C 1005 hPa NNE 4.7 km/h 4.8 km/h 54% 0 mm 0.0 W/m2
23:20 22.3 °C 12.5 °C 1005 hPa NNE 3.2 km/h 4.8 km/h 54% 0 mm 0.0 W/m2
23:25 22.3 °C 12.5 °C 1005 hPa Calm   4.8 km/h 54% 0 mm 0.0 W/m2
23:30 22.2 °C 12.7 °C 1005.3 hPa Calm   1.6 km/h 55% 0 mm 0.0 W/m2
23:35 22.2 °C 12.7 °C 1005.3 hPa Calm   1.6 km/h 55% 0 mm 0.0 W/m2
23:41 22.2 °C 12.4 °C 1005.6 hPa Calm   4.8 km/h 54% 0 mm 0.0 W/m2
23:46 22.2 °C 12.4 °C 1005.3 hPa Calm     54% 0 mm 0.0 W/m2
23:51 22.2 °C 12.4 °C 1005.3 hPa Calm   1.6 km/h 54% 0 mm 0.0 W/m2
23:56 22.2 °C 12.4 °C 1005 hPa Calm     54% 0 mm 0.0 W/m2
Olympia, Windhoek, Namibia
Compliments of Weather Underground - 3.25 mb